Time;durP1;ratioP1;P1;durP2;ratioP2;P2;SDS_P1;SDS_P2;PMS_P1;PMS_P2;Temp;Humidity;BMP_temperature;BMP_pressure;BME280_temperature;BME280_humidity;BME280_pressure;Samples;Min_cycle;Max_cycle;Signal;HPM_P1;HPM_P2
2022/04/05 00:00:59;;;;;;;8.80;1.50;;;7.80;99.90;;;;;;5139655;27;20039;-80
2022/04/05 00:03:26;;;;;;;8.00;1.30;;;7.80;99.90;;;;;;5139875;27;20052;-80
2022/04/05 00:05:52;;;;;;;6.97;1.30;;;7.70;99.90;;;;;;5156757;27;20057;-80
2022/04/05 00:08:18;;;;;;;11.03;1.93;;;7.70;99.90;;;;;;5139823;27;20287;-80
2022/04/05 00:10:44;;;;;;;7.23;1.90;;;7.70;99.90;;;;;;5139541;27;20311;-81
2022/04/05 00:13:10;;;;;;;8.17;1.70;;;7.70;99.90;;;;;;5139743;27;20133;-80
2022/04/05 00:15:36;;;;;;;8.53;1.60;;;7.70;99.90;;;;;;5156758;27;20495;-81
2022/04/05 00:18:02;;;;;;;5.90;1.30;;;7.70;99.90;;;;;;5156938;27;20141;-80
2022/04/05 00:20:29;;;;;;;12.13;2.77;;;7.70;99.90;;;;;;5156771;27;20777;-80
2022/04/05 00:22:55;;;;;;;10.40;1.83;;;7.70;99.90;;;;;;5174636;27;20291;-81
2022/04/05 00:25:21;;;;;;;8.60;1.30;;;7.70;99.90;;;;;;5175575;27;20627;-80
2022/04/05 00:27:47;;;;;;;10.27;1.70;;;7.70;99.90;;;;;;5139335;27;20279;-81
2022/04/05 00:30:14;;;;;;;9.37;1.93;;;7.60;99.90;;;;;;5175166;27;20039;-81
2022/04/05 00:32:40;;;;;;;7.07;1.80;;;7.60;99.90;;;;;;5156282;27;20279;-81
2022/04/05 00:35:08;;;;;;;10.13;1.70;;;7.60;99.90;;;;;;5156848;27;20679;-81
2022/04/05 00:37:34;;;;;;;6.10;1.60;;;7.60;99.90;;;;;;5139304;27;20284;-83
2022/04/05 00:40:00;;;;;;;8.50;1.50;;;7.60;99.90;;;;;;5122240;27;20296;-80
2022/04/05 00:42:26;;;;;;;14.50;2.37;;;7.60;99.90;;;;;;5175167;27;20271;-81
2022/04/05 00:44:52;;;;;;;8.60;1.77;;;7.60;99.90;;;;;;5156363;27;20607;-81
2022/04/05 00:47:20;;;;;;;6.83;1.47;;;7.60;99.90;;;;;;5156670;27;20042;-81
2022/04/05 00:49:47;;;;;;;9.07;1.50;;;7.60;99.90;;;;;;5174695;27;20077;-81
2022/04/05 00:52:14;;;;;;;11.00;2.03;;;7.60;99.90;;;;;;5139618;27;20287;-81
2022/04/05 00:54:41;;;;;;;11.37;1.50;;;7.50;99.90;;;;;;5139319;27;20647;-82
2022/04/05 00:57:18;;;;;;;7.77;1.57;;;7.50;99.90;;;;;;5156537;27;20290;-81
2022/04/05 00:59:46;;;;;;;8.90;1.50;;;7.50;99.90;;;;;;5156148;27;20307;-81
2022/04/05 01:02:15;;;;;;;11.40;1.93;;;7.50;99.90;;;;;;5159788;27;20370;-81
2022/04/05 01:04:44;;;;;;;10.27;1.43;;;7.50;99.90;;;;;;5160047;27;20284;-82
2022/04/05 01:07:15;;;;;;;8.83;1.60;;;7.50;99.90;;;;;;5160424;27;20675;-82
2022/04/05 01:09:42;;;;;;;9.33;1.67;;;7.50;99.90;;;;;;5159969;27;20279;-82
2022/04/05 01:12:10;;;;;;;8.37;1.73;;;7.50;99.90;;;;;;5160272;27;20362;-82
2022/04/05 01:14:37;;;;;;;6.73;1.50;;;7.50;99.90;;;;;;5142881;27;20319;-81
2022/04/05 01:17:04;;;;;;;8.80;1.83;;;7.50;99.90;;;;;;5160024;27;20330;-81
2022/04/05 01:19:31;;;;;;;10.10;1.73;;;7.50;99.90;;;;;;5160151;27;20300;-81
2022/04/05 01:21:57;;;;;;;11.10;1.83;;;7.50;99.90;;;;;;5125541;27;21223;-82
2022/04/05 01:24:23;;;;;;;9.67;1.80;;;7.60;99.90;;;;;;5159612;27;20304;-82
2022/04/05 01:26:51;;;;;;;10.53;2.30;;;7.50;99.90;;;;;;5159440;27;20514;-82
2022/04/05 01:29:19;;;;;;;11.53;1.60;;;7.60;99.90;;;;;;5159884;27;20287;-82
2022/04/05 01:31:49;;;;;;;10.03;1.77;;;7.60;99.90;;;;;;5159345;27;20339;-82
2022/04/05 01:34:20;;;;;;;7.90;1.60;;;7.50;99.90;;;;;;5159836;27;20387;-82
2022/04/05 01:36:50;;;;;;;9.73;2.13;;;7.50;99.90;;;;;;5144305;27;20291;-82
2022/04/05 01:39:17;;;;;;;9.20;1.90;;;7.50;99.90;;;;;;5142820;27;20307;-82
2022/04/05 01:41:44;;;;;;;9.90;1.83;;;7.50;99.90;;;;;;5141914;27;20612;-82
2022/04/05 01:44:12;;;;;;;12.97;1.97;;;7.50;99.90;;;;;;5142293;27;20347;-82
2022/04/05 01:46:38;;;;;;;9.90;1.73;;;7.50;99.90;;;;;;5177952;27;20283;-82
2022/04/05 01:49:08;;;;;;;9.80;2.00;;;7.50;99.90;;;;;;5158951;27;20298;-82
2022/04/05 01:51:36;;;;;;;10.43;2.03;;;7.50;99.90;;;;;;5141945;27;20287;-82
2022/04/05 01:54:05;;;;;;;11.37;2.37;;;7.50;99.90;;;;;;5159095;27;20338;-82
2022/04/05 01:56:40;;;;;;;9.43;2.50;;;7.60;99.90;;;;;;5142298;27;20294;-82
2022/04/05 01:59:06;;;;;;;13.13;2.45;;;7.60;99.90;;;;;;5159231;27;20323;-82
2022/04/05 02:01:31;;;;;;;15.17;2.77;;;7.60;99.90;;;;;;5159033;27;20096;-82
2022/04/05 02:03:58;;;;;;;12.63;2.57;;;7.60;99.90;;;;;;5177402;27;20038;-82
2022/04/05 02:06:25;;;;;;;9.80;1.90;;;7.50;99.90;;;;;;5159271;27;20042;-82
2022/04/05 02:08:51;;;;;;;12.20;2.50;;;7.60;99.90;;;;;;5158624;27;20288;-83
2022/04/05 02:11:17;;;;;;;11.03;2.33;;;7.60;99.90;;;;;;5158753;27;20287;-83
2022/04/05 02:13:42;;;;;;;10.90;2.10;;;7.60;99.90;;;;;;5157781;27;20331;-84
2022/04/05 02:16:08;;;;;;;15.03;2.97;;;7.60;99.90;;;;;;5158732;27;20038;-83
2022/04/05 02:18:37;;;;;;;14.83;2.83;;;7.50;99.90;;;;;;5141495;27;20527;-82
2022/04/05 02:21:03;;;;;;;10.17;2.03;;;7.60;99.90;;;;;;5158501;27;20057;-82
2022/04/05 02:23:29;;;;;;;12.17;2.40;;;7.50;99.90;;;;;;5158578;27;20291;-81
2022/04/05 02:25:55;;;;;;;11.73;2.57;;;7.50;99.90;;;;;;5141189;27;20284;-83
2022/04/05 02:28:21;;;;;;;12.63;2.63;;;7.60;99.90;;;;;;5124448;27;20053;-82
2022/04/05 02:30:47;;;;;;;9.77;2.00;;;7.60;99.90;;;;;;5141122;27;20397;-83
2022/04/05 02:33:12;;;;;;;16.80;2.07;;;7.50;99.90;;;;;;5141416;27;20050;-82
2022/04/05 02:35:38;;;;;;;17.90;2.90;;;7.60;99.90;;;;;;5158489;27;20050;-82
2022/04/05 02:38:04;;;;;;;13.20;2.60;;;7.60;99.90;;;;;;5123893;27;20185;-82
2022/04/05 02:40:30;;;;;;;13.17;2.83;;;7.50;99.90;;;;;;5140931;27;20046;-82
2022/04/05 02:42:56;;;;;;;14.47;2.63;;;7.60;99.90;;;;;;5140929;27;20301;-83
2022/04/05 02:45:22;;;;;;;15.07;2.50;;;7.60;99.90;;;;;;5141006;27;20322;-83
2022/04/05 02:47:48;;;;;;;13.77;2.40;;;7.60;99.90;;;;;;5157754;27;20291;-83
2022/04/05 02:50:17;;;;;;;14.47;2.57;;;7.60;99.90;;;;;;5123898;27;20536;-83
2022/04/05 02:52:47;;;;;;;16.67;2.77;;;7.60;99.90;;;;;;5158212;27;20283;-83
2022/04/05 02:55:13;;;;;;;9.00;1.80;;;7.60;99.90;;;;;;5158152;27;20287;-83
2022/04/05 02:57:40;;;;;;;14.33;2.37;;;7.60;99.90;;;;;;5140965;27;20643;-82
2022/04/05 03:00:08;;;;;;;12.93;1.97;;;7.60;99.90;;;;;;5140372;27;20912;-82
2022/04/05 03:02:34;;;;;;;12.60;2.10;;;7.60;99.90;;;;;;5123514;27;20298;-82
2022/04/05 03:05:01;;;;;;;9.73;2.20;;;7.60;99.90;;;;;;5157688;27;20291;-83
2022/04/05 03:07:28;;;;;;;10.90;2.47;;;7.60;99.90;;;;;;5157948;27;20287;-82
2022/04/05 03:09:54;;;;;;;15.83;2.50;;;7.60;99.90;;;;;;5157594;27;20290;-83
2022/04/05 03:12:19;;;;;;;16.63;2.97;;;7.60;99.90;;;;;;5140665;27;20755;-82
2022/04/05 03:14:46;;;;;;;18.83;2.87;;;7.60;99.90;;;;;;5140578;27;20497;-82
2022/04/05 03:17:12;;;;;;;12.10;2.17;;;7.50;99.90;;;;;;5139921;27;20042;-83
2022/04/05 03:19:38;;;;;;;15.27;2.13;;;7.50;99.90;;;;;;5140083;27;20379;-83
2022/04/05 03:22:08;;;;;;;15.03;2.03;;;7.60;99.90;;;;;;5175844;27;20295;-83
2022/04/05 03:24:34;;;;;;;18.80;3.13;;;7.50;99.90;;;;;;5139475;27;20298;-82
2022/04/05 03:27:01;;;;;;;11.93;2.17;;;7.50;99.90;;;;;;5157208;27;20323;-83
2022/04/05 03:29:27;;;;;;;13.23;2.33;;;7.50;99.90;;;;;;5140351;27;20331;-82
2022/04/05 03:31:53;;;;;;;11.57;2.10;;;7.50;99.90;;;;;;5156845;27;20306;-82
2022/04/05 03:34:18;;;;;;;11.63;2.07;;;7.50;99.90;;;;;;5157377;27;20050;-82
2022/04/05 03:36:44;;;;;;;14.53;2.37;;;7.50;99.90;;;;;;5157420;27;20118;-81
2022/04/05 03:39:13;;;;;;;9.00;2.07;;;7.50;99.90;;;;;;5139783;27;20050;-81
2022/04/05 03:41:39;;;;;;;12.67;2.10;;;7.50;99.90;;;;;;5157299;27;20358;-80
2022/04/05 03:44:06;;;;;;;11.30;2.13;;;7.50;99.90;;;;;;5140462;27;20334;-80
2022/04/05 03:46:33;;;;;;;12.60;1.97;;;7.50;99.90;;;;;;5124638;27;20287;-80
2022/04/05 03:48:59;;;;;;;15.10;2.30;;;7.50;99.90;;;;;;5140062;27;20299;-80
2022/04/05 03:51:25;;;;;;;18.67;2.73;;;7.50;99.90;;;;;;5157320;27;20366;-78
2022/04/05 03:53:54;;;;;;;12.10;2.27;;;7.50;99.90;;;;;;5175749;27;20619;-78
2022/04/05 03:56:20;;;;;;;13.43;2.37;;;7.50;99.90;;;;;;5157038;27;20630;-77
2022/04/05 03:58:46;;;;;;;14.43;2.13;;;7.50;99.90;;;;;;5140124;27;20287;-77
2022/04/05 04:01:12;;;;;;;8.93;1.80;;;7.50;99.90;;;;;;5175157;27;20302;-77
2022/04/05 04:03:38;;;;;;;11.17;1.80;;;7.50;99.90;;;;;;5139859;27;20287;-77
2022/04/05 04:06:04;;;;;;;8.67;2.27;;;7.50;99.90;;;;;;5156904;27;20393;-77
2022/04/05 04:08:30;;;;;;;15.03;2.80;;;7.50;99.90;;;;;;5157020;27;20140;-76
2022/04/05 04:10:56;;;;;;;13.80;2.40;;;7.50;99.90;;;;;;5175120;27;20042;-77
2022/04/05 04:13:21;;;;;;;12.57;2.40;;;7.50;99.90;;;;;;5175365;27;20286;-77
2022/04/05 04:15:47;;;;;;;12.83;2.20;;;7.50;99.90;;;;;;5139846;27;20038;-77
2022/04/05 04:18:13;;;;;;;13.93;2.40;;;7.50;99.90;;;;;;5175042;27;20065;-77
2022/04/05 04:20:39;;;;;;;9.00;2.77;;;7.50;99.90;;;;;;5139620;27;20046;-76
2022/04/05 04:23:05;;;;;;;13.10;2.75;;;7.50;99.90;;;;;;5175076;27;20054;-76
2022/04/05 04:25:31;;;;;;;9.63;2.50;;;7.50;99.90;;;;;;5175312;27;20141;-76
2022/04/05 04:27:58;;;;;;;10.47;2.23;;;7.50;99.90;;;;;;5156780;27;20287;-77
2022/04/05 04:30:23;;;;;;;13.17;2.63;;;7.50;99.90;;;;;;5156977;27;20322;-76
2022/04/05 04:32:49;;;;;;;8.17;2.00;;;7.50;99.90;;;;;;5175186;27;20315;-76
2022/04/05 04:35:15;;;;;;;13.77;2.20;;;7.50;99.90;;;;;;5156402;27;20042;-76
2022/04/05 04:37:41;;;;;;;10.97;2.37;;;7.50;99.90;;;;;;5179213;27;20044;-76
2022/04/05 04:40:07;;;;;;;14.60;2.63;;;7.40;99.90;;;;;;5143072;27;20082;-76
2022/04/05 04:42:33;;;;;;;9.87;2.07;;;7.50;99.90;;;;;;5179349;27;20282;-76
2022/04/05 04:45:00;;;;;;;12.40;2.33;;;7.50;99.90;;;;;;5179042;27;20719;-77
2022/04/05 04:47:26;;;;;;;9.90;2.27;;;7.40;99.90;;;;;;5179120;27;20038;-77
2022/04/05 04:49:52;;;;;;;12.40;2.90;;;7.40;99.90;;;;;;5160849;27;20287;-77
2022/04/05 04:52:17;;;;;;;11.70;2.23;;;7.40;99.90;;;;;;5142836;27;20043;-78
2022/04/05 04:54:43;;;;;;;11.83;2.80;;;7.50;99.90;;;;;;5160688;27;20178;-78
2022/04/05 04:57:09;;;;;;;13.40;2.80;;;7.40;99.90;;;;;;5142809;27;20042;-79
2022/04/05 04:59:35;;;;;;;11.90;3.50;;;7.40;99.90;;;;;;5142968;27;20034;-79
2022/04/05 05:02:01;;;;;;;12.27;2.53;;;7.30;99.90;;;;;;5160129;27;20057;-83
2022/04/05 05:04:26;;;;;;;9.67;2.07;;;7.40;99.90;;;;;;5179152;27;20381;-80
2022/04/05 05:06:53;;;;;;;10.23;2.63;;;7.40;99.90;;;;;;5160619;27;20340;-79
2022/04/05 05:09:19;;;;;;;10.67;2.37;;;7.40;99.90;;;;;;5160128;27;20103;-79
2022/04/05 05:11:46;;;;;;;9.37;2.47;;;7.30;99.90;;;;;;5160078;27;20287;-78
2022/04/05 05:14:12;;;;;;;10.63;2.30;;;7.30;99.90;;;;;;5142702;27;20323;-78
2022/04/05 05:16:37;;;;;;;13.17;2.40;;;7.40;99.90;;;;;;5160054;27;20311;-78
2022/04/05 05:19:04;;;;;;;7.80;1.93;;;7.30;99.90;;;;;;5125492;27;20042;-79
2022/04/05 05:21:31;;;;;;;9.97;2.27;;;7.40;99.90;;;;;;5160409;27;20068;-78
2022/04/05 05:23:57;;;;;;;10.40;2.10;;;7.40;99.90;;;;;;5159604;27;20302;-78
2022/04/05 05:26:23;;;;;;;12.10;2.40;;;7.40;99.90;;;;;;5148234;27;20723;-79
2022/04/05 05:28:49;;;;;;;12.37;2.60;;;7.40;99.90;;;;;;5121923;27;20478;-79
2022/04/05 05:31:14;;;;;;;9.17;2.00;;;7.40;99.90;;;;;;5138800;27;20294;-79
2022/04/05 05:33:40;;;;;;;11.63;2.50;;;7.40;99.90;;;;;;5122301;27;20307;-79
2022/04/05 05:36:06;;;;;;;8.10;2.10;;;7.40;99.90;;;;;;5138594;27;20521;-80
2022/04/05 05:38:32;;;;;;;10.83;2.10;;;7.40;99.90;;;;;;5122143;27;20086;-79
2022/04/05 05:40:58;;;;;;;11.13;2.47;;;7.50;99.90;;;;;;5157350;27;20043;-79
2022/04/05 05:43:24;;;;;;;9.10;2.10;;;7.40;99.90;;;;;;5121555;27;20043;-82
2022/04/05 05:45:49;;;;;;;10.77;2.47;;;7.40;99.90;;;;;;5121761;27;20069;-82
2022/04/05 05:48:15;;;;;;;9.87;2.40;;;7.40;99.90;;;;;;5121090;27;20042;-83
2022/04/05 05:50:41;;;;;;;10.50;2.23;;;7.50;99.90;;;;;;5121473;27;20053;-72
2022/04/05 05:53:07;;;;;;;9.70;2.47;;;7.50;99.90;;;;;;5157260;27;20078;-81
2022/04/05 05:55:35;;;;;;;9.27;2.60;;;7.50;99.90;;;;;;5157392;27;20047;-79
2022/04/05 05:58:03;;;;;;;7.83;2.50;;;7.50;99.90;;;;;;5138602;27;20054;-80
2022/04/05 06:00:29;;;;;;;11.23;2.63;;;7.60;99.90;;;;;;5137722;27;20292;-79
2022/04/05 06:02:58;;;;;;;10.00;2.50;;;7.60;99.90;;;;;;5138456;27;20284;-78
2022/04/05 06:05:25;;;;;;;12.10;3.07;;;7.60;99.90;;;;;;5138115;27;20311;-78
2022/04/05 06:07:51;;;;;;;9.30;2.43;;;7.60;99.90;;;;;;5138493;27;20295;-77
2022/04/05 06:10:17;;;;;;;8.47;2.80;;;7.60;99.90;;;;;;5138359;27;20280;-80
2022/04/05 06:12:45;;;;;;;10.07;2.60;;;7.60;99.90;;;;;;5161496;27;20042;-79
2022/04/05 06:15:13;;;;;;;13.33;2.43;;;7.60;99.90;;;;;;5137997;27;20299;-79
2022/04/05 06:17:45;;;;;;;9.40;2.23;;;7.60;99.90;;;;;;5156358;27;20280;-80
2022/04/05 06:20:13;;;;;;;13.30;3.10;;;7.70;99.90;;;;;;5137609;27;20767;-81
2022/04/05 06:22:43;;;;;;;8.40;3.00;;;7.70;99.90;;;;;;5137890;27;20325;-81
2022/04/05 06:25:10;;;;;;;11.03;3.03;;;7.80;99.90;;;;;;5156320;27;20276;-81
2022/04/05 06:27:37;;;;;;;9.27;2.60;;;7.80;99.90;;;;;;5156527;27;20579;-81
2022/04/05 06:30:05;;;;;;;12.13;2.83;;;7.80;99.90;;;;;;5156653;27;20397;-81
2022/04/05 06:32:31;;;;;;;11.77;2.60;;;7.90;99.90;;;;;;5156261;27;20307;-81
2022/04/05 06:34:57;;;;;;;9.97;2.47;;;7.90;99.90;;;;;;5138261;27;20369;-81
2022/04/05 06:37:22;;;;;;;8.83;2.47;;;7.90;99.90;;;;;;5156075;27;20091;-81
2022/04/05 06:39:48;;;;;;;9.77;2.80;;;8.00;99.90;;;;;;5156310;27;20125;-81
2022/04/05 06:42:14;;;;;;;12.03;2.60;;;8.00;99.90;;;;;;5120708;27;20444;-82
2022/04/05 06:44:40;;;;;;;12.70;2.70;;;8.10;99.90;;;;;;5137980;27;20046;-81
2022/04/05 06:47:06;;;;;;;10.30;2.27;;;8.10;99.90;;;;;;5137855;27;20493;-82
2022/04/05 06:49:32;;;;;;;9.07;2.53;;;8.10;99.90;;;;;;5155837;27;20165;-81
2022/04/05 06:51:58;;;;;;;11.70;2.00;;;8.10;99.90;;;;;;5155751;27;20280;-81
2022/04/05 06:54:24;;;;;;;10.30;2.97;;;8.10;99.90;;;;;;5120024;27;20336;-82
2022/04/05 06:56:50;;;;;;;9.17;2.47;;;8.20;99.90;;;;;;5137669;27;20051;-81
2022/04/05 06:59:15;;;;;;;11.10;2.43;;;8.20;99.90;;;;;;5155149;27;20049;-83
2022/04/05 07:01:41;;;;;;;8.47;2.00;;;8.20;99.90;;;;;;5137332;27;20191;-82
2022/04/05 07:04:07;;;;;;;11.80;2.53;;;8.20;99.90;;;;;;5155892;27;20046;-82
2022/04/05 07:06:33;;;;;;;8.47;2.33;;;8.20;99.90;;;;;;5155533;27;20166;-82
2022/04/05 07:08:58;;;;;;;7.07;2.10;;;8.20;99.90;;;;;;5137232;27;20065;-82
2022/04/05 07:11:24;;;;;;;13.17;2.93;;;8.20;99.90;;;;;;5155352;27;20284;-82
2022/04/05 07:13:51;;;;;;;8.10;2.20;;;8.20;99.90;;;;;;5103023;27;20099;-82
2022/04/05 07:16:18;;;;;;;8.97;2.67;;;8.20;99.90;;;;;;5155467;27;20391;-82
2022/04/05 07:18:44;;;;;;;9.47;2.00;;;8.30;99.90;;;;;;5155487;27;20288;-81
2022/04/05 07:21:11;;;;;;;8.60;2.20;;;;;;;;;;5155327;27;20308;-81
2022/04/05 07:23:37;;;;;;;10.70;2.23;;;;;;;;;;5155158;27;20062;-81
2022/04/05 07:26:04;;;;;;;9.83;1.90;;;;;;;;;;5137088;27;20631;-81
2022/04/05 07:28:30;;;;;;;7.63;1.90;;;;;;;;;;5155088;27;20276;-82
2022/04/05 07:30:56;;;;;;;9.07;1.77;;;;;;;;;;5136979;27;20310;-81
2022/04/05 07:33:22;;;;;;;8.10;2.13;;;;;;;;;;5155017;27;20742;-82
2022/04/05 07:35:48;;;;;;;6.13;1.80;;;;;;;;;;5155394;27;20670;-82
2022/04/05 07:38:14;;;;;;;8.40;1.83;;;;;;;;;;5137036;27;20283;-81
2022/04/05 07:40:49;;;;;;;7.23;2.00;;;;;;;;;;5136398;27;20356;-82
2022/04/05 07:43:26;;;;;;;9.57;1.90;;;;;;;;;;5155106;27;20289;-81
2022/04/05 07:45:52;;;;;;;13.03;2.10;;;8.50;99.90;;;;;;5136780;27;20280;-81
2022/04/05 07:48:21;;;;;;;6.13;1.57;;;8.50;99.90;;;;;;5136199;27;20307;-82
2022/04/05 07:50:50;;;;;;;5.20;1.53;;;8.40;99.90;;;;;;5136723;27;20284;-81
2022/04/05 07:53:16;;;;;;;7.57;1.70;;;8.50;99.90;;;;;;5154900;27;20272;-81
2022/04/05 07:55:42;;;;;;;7.87;2.40;;;8.50;99.90;;;;;;5154736;27;20286;-81
2022/04/05 07:58:08;;;;;;;7.90;1.90;;;8.60;99.90;;;;;;5154980;27;20689;-81
2022/04/05 08:00:34;;;;;;;8.97;1.70;;;8.60;99.90;;;;;;5138128;27;20311;-81
2022/04/05 08:03:00;;;;;;;7.80;2.00;;;8.60;99.90;;;;;;5154967;27;20093;-81
2022/04/05 08:05:27;;;;;;;7.77;1.67;;;8.70;99.90;;;;;;5136257;27;20330;-82
2022/04/05 08:07:54;;;;;;;7.23;2.00;;;8.70;99.90;;;;;;5154778;27;20043;-81
2022/04/05 08:10:20;;;;;;;8.50;1.97;;;8.70;99.90;;;;;;5136022;27;20299;-83
2022/04/05 08:12:48;;;;;;;6.03;1.77;;;8.80;99.90;;;;;;5141029;27;20284;-81
2022/04/05 08:15:22;;;;;;;7.33;1.57;;;8.70;99.90;;;;;;5158997;27;20283;-80
2022/04/05 08:17:50;;;;;;;7.18;1.80;;;8.80;99.90;;;;;;5159126;27;20742;-80
2022/04/05 08:20:16;;;;;;;6.93;1.57;;;8.80;99.90;;;;;;5158984;27;20035;-79
2022/04/05 08:22:42;;;;;;;10.60;2.30;;;8.90;99.90;;;;;;5158869;27;20304;-80
2022/04/05 08:25:10;;;;;;;7.73;2.10;;;8.90;99.90;;;;;;5159023;27;20283;-80
2022/04/05 08:27:36;;;;;;;9.93;2.20;;;9.00;99.90;;;;;;5158650;27;20707;-80
2022/04/05 08:30:04;;;;;;;7.83;2.00;;;9.00;99.90;;;;;;5158731;27;20276;-80
2022/04/05 08:32:30;;;;;;;8.67;1.70;;;9.00;99.90;;;;;;5158547;27;20341;-80
2022/04/05 08:34:55;;;;;;;10.33;1.90;;;9.00;99.90;;;;;;5159028;27;20280;-80
2022/04/05 08:37:25;;;;;;;6.33;1.70;;;;;;;;;;5158746;27;20039;-80
2022/04/05 08:39:51;;;;;;;5.30;1.43;;;;;;;;;;5158864;27;20042;-80
2022/04/05 08:42:17;;;;;;;6.20;1.50;;;;;;;;;;5158670;27;20279;-81
2022/04/05 08:44:43;;;;;;;11.93;1.77;;;;;;;;;;5158263;27;20407;-79
2022/04/05 08:47:12;;;;;;;8.33;1.60;;;;;;;;;;5158516;27;20280;-79
2022/04/05 08:49:38;;;;;;;6.10;1.80;;;;;;;;;;5158212;27;20283;-79
2022/04/05 08:52:05;;;;;;;7.47;1.80;;;9.10;99.90;;;;;;5158402;27;20338;-79
2022/04/05 08:54:31;;;;;;;6.97;1.60;;;;;;;;;;5158176;27;20367;-79
2022/04/05 08:56:57;;;;;;;6.30;1.53;;;;;;;;;;5139716;27;20287;-79
2022/04/05 08:59:23;;;;;;;5.20;1.60;;;;;;;;;;5157827;27;20900;-79
2022/04/05 09:01:53;;;;;;;6.87;1.20;;;;;;;;;;5139530;27;20329;-79
2022/04/05 09:04:19;;;;;;;5.73;1.40;;;;;;;;;;5158133;27;20320;-79
2022/04/05 09:06:46;;;;;;;3.57;1.20;;;;;;;;;;5139713;27;20288;-79
2022/04/05 09:09:16;;;;;;;3.63;1.30;;;;;;;;;;5158137;27;20442;-79
2022/04/05 09:11:43;;;;;;;4.90;1.20;;;;;;;;;;5157831;27;20299;-79
2022/04/05 09:14:10;;;;;;;5.53;1.30;;;;;;;;;;5139828;27;20292;-78
2022/04/05 09:16:36;;;;;;;4.50;1.60;;;9.50;99.90;;;;;;5157789;27;20275;-78
2022/04/05 09:19:15;;;;;;;5.93;1.57;;;9.50;99.90;;;;;;5157973;27;20276;-78
2022/04/05 09:21:52;;;;;;;5.37;1.27;;;9.40;99.90;;;;;;5157170;27;20276;-78
2022/04/05 09:24:18;;;;;;;3.50;1.00;;;9.50;99.90;;;;;;5157867;27;20299;-78
2022/04/05 09:26:45;;;;;;;4.50;1.30;;;9.60;99.90;;;;;;5157557;27;20284;-78
2022/04/05 09:29:11;;;;;;;3.43;1.40;;;9.60;99.90;;;;;;5157763;27;20272;-78
2022/04/05 09:31:48;;;;;;;3.13;1.00;;;9.70;99.90;;;;;;5139007;27;20320;-78
2022/04/05 09:34:19;;;;;;;2.97;0.80;;;9.70;99.90;;;;;;5139132;27;20635;-78
2022/04/05 09:36:50;;;;;;;2.80;0.80;;;9.60;99.90;;;;;;5157419;27;20672;-78
2022/04/05 09:39:23;;;;;;;1.10;0.70;;;9.70;99.90;;;;;;5157434;27;20275;-78
2022/04/05 09:42:00;;;;;;;1.27;0.60;;;9.70;99.90;;;;;;5157269;27;20631;-79
2022/04/05 09:44:34;;;;;;;2.80;1.30;;;9.70;99.90;;;;;;5139266;27;20778;-79
2022/04/05 09:47:03;;;;;;;2.20;0.90;;;9.70;99.90;;;;;;5157557;27;20364;-79
2022/04/05 09:49:38;;;;;;;3.17;0.83;;;9.70;99.90;;;;;;5139215;27;20304;-79
2022/04/05 09:52:21;;;;;;;1.63;0.95;;;9.60;99.90;;;;;;5138759;27;20342;-79
2022/04/05 09:54:47;;;;;;;3.03;0.90;;;9.70;99.90;;;;;;5157006;27;20225;-80
2022/04/05 09:57:12;;;;;;;2.93;1.27;;;9.70;99.90;;;;;;5156747;27;20374;-79
2022/04/05 09:59:41;;;;;;;2.30;1.00;;;9.80;99.90;;;;;;5156738;27;20046;-78
2022/04/05 10:02:16;;;;;;;4.07;1.10;;;9.80;99.90;;;;;;5156981;27;20102;-77
2022/04/05 10:05:00;;;;;;;2.40;0.85;;;9.80;99.90;;;;;;5156946;27;20315;-77
2022/04/05 10:07:28;;;;;;;1.27;0.80;;;9.80;99.90;;;;;;5156991;27;20367;-77
2022/04/05 10:09:54;;;;;;;1.77;0.90;;;9.80;99.90;;;;;;5156613;27;20850;-77
2022/04/05 10:12:21;;;;;;;3.33;1.00;;;9.90;99.90;;;;;;5156896;27;20598;-77
2022/04/05 10:14:47;;;;;;;1.70;1.00;;;10.00;99.90;;;;;;5156617;27;20302;-77
2022/04/05 10:17:14;;;;;;;2.20;1.03;;;10.00;99.90;;;;;;5156721;27;20367;-78
2022/04/05 10:19:45;;;;;;;2.10;0.90;;;10.00;99.90;;;;;;5138124;27;20042;-78
2022/04/05 10:22:15;;;;;;;2.17;1.30;;;10.10;99.90;;;;;;5138302;27;20846;-78
2022/04/05 10:24:41;;;;;;;3.50;1.20;;;10.20;99.90;;;;;;5156416;27;20340;-78
2022/04/05 10:27:08;;;;;;;1.63;1.10;;;10.10;99.90;;;;;;5156499;27;20368;-77
2022/04/05 10:29:35;;;;;;;2.47;1.20;;;10.00;99.90;;;;;;5138278;27;20295;-81
2022/04/05 10:32:53;;;;;;;2.07;1.20;;;10.10;99.90;;;;;;5138097;27;20299;-78
2022/04/05 10:35:23;;;;;;;1.73;1.10;;;10.40;99.90;;;;;;5113333;27;20291;-78
2022/04/05 10:37:51;;;;;;;2.53;0.90;;;10.30;99.90;;;;;;5155774;27;20794;-78
2022/04/05 10:40:20;;;;;;;2.90;1.40;;;;;;;;;;5156363;27;20311;-78
2022/04/05 10:42:47;;;;;;;2.07;1.20;;;;;;;;;;5155982;27;20291;-78
2022/04/05 10:45:13;;;;;;;3.30;1.47;;;;;;;;;;5156130;27;20284;-78
2022/04/05 10:47:58;;;;;;;2.20;1.40;;;;;;;;;;5155902;27;20280;-79
2022/04/05 10:50:24;;;;;;;2.67;1.57;;;;;;;;;;5156090;27;20329;-79
2022/04/05 10:53:10;;;;;;;3.40;1.73;;;;;;;;;;5155825;27;20046;-79
2022/04/05 10:55:55;;;;;;;2.47;1.60;;;;;;;;;;5137798;27;20344;-82
2022/04/05 10:58:22;;;;;;;2.38;1.55;;;;;;;;;;5156165;27;20359;-78
2022/04/05 11:00:49;;;;;;;3.00;1.87;;;;;;;;;;5155590;27;20090;-79
2022/04/05 11:03:15;;;;;;;3.63;2.00;;;;;;;;;;5137735;27;20312;-79
2022/04/05 11:05:43;;;;;;;2.77;1.73;;;;;;;;;;5155494;27;20276;-79
2022/04/05 11:08:14;;;;;;;3.63;2.23;;;;;;;;;;5137476;27;20299;-79
2022/04/05 11:10:40;;;;;;;4.43;2.20;;;;;;;;;;5155544;27;20314;-80
2022/04/05 11:13:13;;;;;;;3.73;2.33;;;;;;;;;;5120192;27;20296;-79
2022/04/05 11:15:52;;;;;;;3.20;2.07;;;11.60;99.90;;;;;;5155195;27;20299;-79
2022/04/05 11:18:22;;;;;;;4.10;2.20;;;11.60;99.90;;;;;;5155773;27;20359;-79
2022/04/05 11:20:51;;;;;;;3.70;2.13;;;11.60;99.90;;;;;;5155197;27;20336;-80
2022/04/05 11:23:20;;;;;;;4.10;2.53;;;11.60;99.90;;;;;;5155485;27;20349;-79
2022/04/05 11:25:47;;;;;;;3.87;2.53;;;11.70;99.90;;;;;;5136980;27;20285;-80
2022/04/05 11:28:21;;;;;;;4.47;2.87;;;11.70;99.90;;;;;;5155723;27;20348;-79
2022/04/05 11:31:04;;;;;;;4.90;3.10;;;11.70;99.90;;;;;;5155229;27;20269;-79
2022/04/05 11:33:32;;;;;;;4.63;2.83;;;11.70;99.90;;;;;;5137257;27;20593;-79
2022/04/05 11:36:13;;;;;;;3.83;2.77;;;11.70;99.90;;;;;;5155049;27;20292;-79
2022/04/05 11:38:53;;;;;;;4.80;3.20;;;11.70;99.90;;;;;;5136788;27;20388;-80
2022/04/05 11:41:23;;;;;;;4.83;3.37;;;11.70;99.90;;;;;;5155269;27;20303;-79
2022/04/05 11:43:52;;;;;;;5.27;3.60;;;11.60;99.90;;;;;;5154890;27;20280;-80
2022/04/05 11:46:22;;;;;;;6.50;4.23;;;11.60;99.90;;;;;;5136711;27;20276;-79
2022/04/05 11:48:49;;;;;;;7.73;4.20;;;11.60;99.90;;;;;;5154879;27;20319;-80
2022/04/05 11:51:17;;;;;;;5.20;3.70;;;11.60;99.90;;;;;;5136506;27;20290;-80
2022/04/05 11:53:45;;;;;;;5.20;3.90;;;11.50;99.90;;;;;;5136476;27;20790;-80
2022/04/05 11:56:22;;;;;;;4.90;3.53;;;11.40;99.90;;;;;;5154621;27;20653;-79
2022/04/05 11:58:59;;;;;;;7.30;4.30;;;11.40;99.90;;;;;;5154729;27;20316;-80
2022/04/05 12:01:31;;;;;;;6.80;4.67;;;11.30;99.90;;;;;;5136536;27;20300;-79
2022/04/05 12:04:04;;;;;;;7.10;4.77;;;11.30;99.90;;;;;;5154698;27;20291;-80
2022/04/05 12:06:32;;;;;;;8.37;5.40;;;11.40;99.90;;;;;;5136359;27;20276;-79
2022/04/05 12:09:10;;;;;;;8.33;5.10;;;11.40;99.90;;;;;;5136000;27;20284;-79
2022/04/05 12:11:38;;;;;;;9.60;4.93;;;11.40;99.90;;;;;;5154727;27;20267;-79
2022/04/05 12:14:09;;;;;;;7.37;4.70;;;11.50;99.90;;;;;;5154501;27;20291;-79
2022/04/05 12:16:55;;;;;;;7.60;4.90;;;11.60;99.90;;;;;;5154759;27;20342;-78
2022/04/05 12:19:35;;;;;;;9.33;5.40;;;11.60;99.90;;;;;;5154613;27;20276;-79
2022/04/05 12:22:05;;;;;;;7.93;4.93;;;11.40;99.90;;;;;;5154735;27;20284;-78
2022/04/05 12:24:32;;;;;;;8.17;5.10;;;11.40;99.90;;;;;;5154871;27;20295;-78
2022/04/05 12:27:00;;;;;;;8.17;4.70;;;11.30;99.90;;;;;;5136152;27;20624;-78
2022/04/05 12:29:27;;;;;;;8.80;4.37;;;11.20;99.90;;;;;;5154649;27;20287;-78
2022/04/05 12:31:54;;;;;;;9.23;3.73;;;11.20;99.90;;;;;;5154258;27;20272;-78
2022/04/05 12:34:20;;;;;;;8.77;3.30;;;11.20;99.90;;;;;;5154693;27;20280;-78
2022/04/05 12:36:52;;;;;;;9.30;3.53;;;11.10;99.90;;;;;;5154478;27;20287;-78
2022/04/05 12:39:21;;;;;;;10.40;4.30;;;11.10;99.90;;;;;;5154808;27;20684;-78
2022/04/05 12:41:51;;;;;;;12.87;5.43;;;11.10;99.90;;;;;;5136294;27;20287;-78
2022/04/05 12:44:20;;;;;;;13.63;5.17;;;11.00;99.90;;;;;;5154267;27;20771;-78
2022/04/05 12:46:58;;;;;;;11.50;5.73;;;11.00;99.90;;;;;;5154532;27;20689;-79
2022/04/05 12:49:28;;;;;;;14.17;5.90;;;11.00;99.90;;;;;;5135908;27;20904;-79
2022/04/05 12:52:15;;;;;;;15.97;6.23;;;10.90;99.90;;;;;;5154158;27;20640;-79
2022/04/05 12:55:03;;;;;;;17.33;5.93;;;10.90;99.90;;;;;;5136425;27;20341;-79
2022/04/05 12:57:37;;;;;;;16.20;6.63;;;10.80;99.90;;;;;;5156255;27;20291;-79
2022/04/05 13:00:14;;;;;;;17.38;7.50;;;10.80;99.90;;;;;;5158033;27;20306;-79
2022/04/05 13:02:46;;;;;;;14.60;6.17;;;10.70;99.90;;;;;;5158438;27;20039;-78
2022/04/05 13:07:59;;;;;;;23.10;7.30;;;10.70;99.90;;;;;;5157937;27;20281;-78
2022/04/05 13:10:32;;;;;;;19.10;6.07;;;10.70;99.90;;;;;;5139667;27;20920;-77